createdAt,value
2018-01-19T00:00:13.315Z,2.05
2018-01-19T00:02:40.779Z,3.05
2018-01-19T00:05:08.199Z,3.03
2018-01-19T00:07:35.627Z,3.65
2018-01-19T00:10:03.088Z,4.53
2018-01-19T00:12:30.504Z,3.60
2018-01-19T00:14:58.128Z,2.87
2018-01-19T00:17:25.594Z,1.90
2018-01-19T00:19:53.067Z,5.20
2018-01-19T00:22:20.479Z,3.85
2018-01-19T00:24:48.003Z,1.67
2018-01-19T00:27:15.411Z,3.92
2018-01-19T00:29:42.832Z,5.22
2018-01-19T00:32:11.010Z,1.75
2018-01-19T00:34:39.207Z,3.00
2018-01-19T00:37:06.687Z,4.00
2018-01-19T00:39:34.155Z,1.48
2018-01-19T00:42:01.627Z,2.95
2018-01-19T00:44:29.111Z,3.25
2018-01-19T00:46:56.532Z,2.30
2018-01-19T00:49:24.762Z,6.32
2018-01-19T00:51:52.175Z,3.80
2018-01-19T00:54:19.692Z,3.70
2018-01-19T00:56:47.159Z,4.65
2018-01-19T00:59:14.572Z,2.58
2018-01-19T01:01:42.103Z,2.53
2018-01-19T01:04:09.515Z,3.65
2018-01-19T01:06:36.934Z,1.75
2018-01-19T01:09:04.412Z,4.55
2018-01-19T01:11:31.881Z,1.62
2018-01-19T01:13:59.295Z,0.80
2018-01-19T01:16:26.823Z,2.60
2018-01-19T01:18:54.239Z,1.35
2018-01-19T01:21:21.663Z,0.82
2018-01-19T01:23:49.127Z,1.65
2018-01-19T01:26:16.597Z,1.58
2018-01-19T01:28:44.007Z,0.30
2018-01-19T01:31:11.432Z,0.40
2018-01-19T01:33:38.899Z,1.37
2018-01-19T01:36:06.323Z,1.87
2018-01-19T01:38:33.780Z,0.28
2018-01-19T01:41:01.191Z,0.22
2018-01-19T01:43:29.380Z,0.68
2018-01-19T01:45:57.624Z,0.30
2018-01-19T01:48:25.052Z,1.60
2018-01-19T01:50:52.523Z,1.37
2018-01-19T01:53:19.992Z,0.20
2018-01-19T01:55:47.408Z,0.93
2018-01-19T01:58:14.832Z,1.98
2018-01-19T02:00:42.247Z,0.30
2018-01-19T02:03:11.947Z,0.30
2018-01-19T02:05:39.391Z,0.95
2018-01-19T02:08:06.808Z,1.02
2018-01-19T02:10:34.327Z,0.40
2018-01-19T02:13:02.655Z,0.43
2018-01-19T02:15:30.079Z,0.73
2018-01-19T02:17:57.591Z,1.02
2018-01-19T02:20:25.011Z,0.60
2018-01-19T02:22:53.187Z,1.37
2018-01-19T02:25:21.380Z,0.20
2018-01-19T02:27:49.564Z,0.55
2018-01-19T02:30:16.983Z,0.55
2018-01-19T02:32:44.428Z,1.48
2018-01-19T02:35:11.848Z,0.95
2018-01-19T02:37:39.283Z,0.25
2018-01-19T02:40:06.738Z,1.35
2018-01-19T02:42:34.147Z,0.55
2018-01-19T02:45:01.660Z,0.88
2018-01-19T02:47:29.864Z,0.85
2018-01-19T02:49:57.331Z,0.28
2018-01-19T02:52:24.743Z,0.65
2018-01-19T02:54:52.170Z,0.35
2018-01-19T02:57:19.587Z,0.20
2018-01-19T02:59:47.075Z,2.28
2018-01-19T03:02:15.274Z,0.45
2018-01-19T03:04:43.455Z,0.37
2018-01-19T03:07:11.671Z,0.20
2018-01-19T03:09:39.136Z,1.70
2018-01-19T03:12:06.567Z,0.47
2018-01-19T03:14:34.076Z,0.85
2018-01-19T03:17:01.553Z,0.85
2018-01-19T03:19:28.963Z,0.22
2018-01-19T03:21:56.394Z,0.30
2018-01-19T03:24:23.857Z,0.10
2018-01-19T03:26:51.326Z,1.45
2018-01-19T03:29:18.735Z,2.17
2018-01-19T03:31:46.157Z,0.90
2018-01-19T03:34:13.572Z,1.70
2018-01-19T03:36:41.000Z,2.28
2018-01-19T03:39:08.470Z,0.35
2018-01-19T03:41:35.955Z,0.93
2018-01-19T03:44:03.376Z,0.68
2018-01-19T03:46:31.563Z,0.40
2018-01-19T03:48:59.751Z,0.55
2018-01-19T03:51:27.251Z,0.52
2018-01-19T03:53:54.663Z,0.62
2018-01-19T03:56:22.089Z,0.30
2018-01-19T03:58:49.503Z,0.10
2018-01-19T04:01:16.923Z,0.20
2018-01-19T04:03:44.396Z,1.35
2018-01-19T04:06:11.819Z,0.10
2018-01-19T04:08:39.236Z,1.20
2018-01-19T04:11:06.704Z,1.20
2018-01-19T04:13:34.123Z,0.10
2018-01-19T04:16:01.548Z,0.22
2018-01-19T04:18:28.964Z,0.10
2018-01-19T04:20:56.375Z,0.10
2018-01-19T04:23:23.800Z,0.73
2018-01-19T04:25:51.235Z,0.15
2018-01-19T04:28:18.683Z,0.15
2018-01-19T04:30:46.160Z,0.37
2018-01-19T04:33:13.623Z,1.37
2018-01-19T04:35:41.092Z,4.03
2018-01-19T04:38:08.511Z,0.37
2018-01-19T04:40:35.929Z,0.52
2018-01-19T04:43:03.352Z,0.30
2018-01-19T04:45:30.768Z,0.98
2018-01-19T04:47:58.188Z,0.55
2018-01-19T04:50:25.703Z,0.43
2018-01-19T04:52:54.151Z,0.95
2018-01-19T04:55:22.335Z,0.10
2018-01-19T04:57:49.755Z,0.68
2018-01-19T05:00:17.231Z,1.55
2018-01-19T05:02:44.651Z,0.32
2018-01-19T05:05:12.165Z,0.52
2018-01-19T05:07:39.583Z,2.75
2018-01-19T05:10:06.996Z,0.37
2018-01-19T05:12:34.415Z,1.87
2018-01-19T05:15:01.841Z,5.05
2018-01-19T05:17:29.311Z,0.20
2018-01-19T05:19:56.779Z,0.37
2018-01-19T05:22:24.207Z,0.30
2018-01-19T05:24:51.623Z,0.88
2018-01-19T05:27:19.079Z,0.20
2018-01-19T05:29:46.658Z,0.60
2018-01-19T05:32:14.124Z,0.47
2018-01-19T05:34:41.548Z,2.03
2018-01-19T05:37:08.960Z,0.73
2018-01-19T05:39:36.383Z,0.45
2018-01-19T05:42:03.912Z,0.57
2018-01-19T05:44:31.375Z,0.98
2018-01-19T05:46:58.788Z,0.50
2018-01-19T05:49:26.415Z,0.60
2018-01-19T05:51:53.835Z,1.27
2018-01-19T05:54:21.251Z,0.55
2018-01-19T05:56:48.668Z,0.90
2018-01-19T05:59:16.088Z,0.50
2018-01-19T06:01:43.560Z,0.95
2018-01-19T06:04:10.980Z,1.05
2018-01-19T06:06:38.396Z,0.60
2018-01-19T06:09:05.815Z,1.55
2018-01-19T06:11:33.339Z,1.62
2018-01-19T06:14:00.809Z,3.87
2018-01-19T06:16:28.228Z,5.78
2018-01-19T06:18:55.748Z,1.62
2018-01-19T06:21:23.163Z,1.30
2018-01-19T06:23:50.684Z,0.90
2018-01-19T06:26:18.104Z,4.57
2018-01-19T06:28:45.632Z,3.05
2018-01-19T06:31:13.052Z,1.25
2018-01-19T06:33:40.467Z,1.30
2018-01-19T06:36:07.887Z,1.05
2018-01-19T06:38:35.408Z,3.62
2018-01-19T06:41:02.832Z,5.12
2018-01-19T06:43:30.243Z,2.22
2018-01-19T06:45:57.759Z,2.08
2018-01-19T06:48:25.171Z,3.42
2018-01-19T06:50:52.655Z,1.17
2018-01-19T06:53:20.120Z,2.47
2018-01-19T06:55:47.545Z,2.75
2018-01-19T06:58:14.959Z,4.78
2018-01-19T07:00:42.431Z,2.25
2018-01-19T07:03:10.755Z,2.00
2018-01-19T07:05:38.179Z,0.98
2018-01-19T07:08:05.587Z,1.20
2018-01-19T07:10:33.023Z,2.17
2018-01-19T07:13:01.352Z,4.05
2018-01-19T07:15:28.779Z,8.30
2018-01-19T07:17:56.265Z,3.92
2018-01-19T07:20:23.678Z,9.98
2018-01-19T07:22:51.091Z,3.12
2018-01-19T07:25:18.556Z,1.98
2018-01-19T07:27:45.967Z,2.67
2018-01-19T07:30:13.500Z,1.55
2018-01-19T07:32:40.918Z,4.18
2018-01-19T07:35:08.332Z,1.10
2018-01-19T07:37:35.756Z,5.62
2018-01-19T07:40:03.180Z,5.57
2018-01-19T07:42:30.599Z,3.15
2018-01-19T07:44:59.515Z,5.30
2018-01-19T07:47:27.779Z,6.18
2018-01-19T07:49:55.203Z,3.58
2018-01-19T07:52:22.627Z,1.95
2018-01-19T07:54:50.039Z,1.60
2018-01-19T07:57:17.460Z,4.15
2018-01-19T07:59:44.877Z,4.30
2018-01-19T08:02:12.300Z,1.87
2018-01-19T08:04:39.816Z,4.25
2018-01-19T08:07:07.236Z,2.08
2018-01-19T08:09:34.658Z,7.72
2018-01-19T08:12:02.076Z,6.57
2018-01-19T08:14:29.595Z,6.43
2018-01-19T08:16:57.044Z,5.32
2018-01-19T08:19:25.220Z,3.35
2018-01-19T08:21:53.400Z,1.45
2018-01-19T08:24:21.624Z,1.70
2018-01-19T08:26:49.039Z,1.95
2018-01-19T08:29:16.564Z,5.43
2018-01-19T08:31:44.033Z,1.40
2018-01-19T08:34:11.459Z,4.90
2018-01-19T08:36:38.980Z,4.95
2018-01-19T08:39:06.448Z,2.15
2018-01-19T08:41:33.865Z,5.70
2018-01-19T08:44:01.380Z,2.03
2018-01-19T08:46:28.852Z,6.25
2018-01-19T08:48:56.290Z,2.60
2018-01-19T08:51:24.507Z,1.83
2018-01-19T08:53:51.984Z,3.53
2018-01-19T08:56:19.447Z,4.22
2018-01-19T08:58:46.868Z,4.12
2018-01-19T09:01:14.280Z,3.30
2018-01-19T09:03:41.758Z,3.30
2018-01-19T09:06:09.172Z,2.92
2018-01-19T09:08:36.599Z,3.60
2018-01-19T09:11:04.063Z,5.70
2018-01-19T09:13:31.483Z,3.20
2018-01-19T09:15:59.002Z,4.50
2018-01-19T09:18:26.420Z,2.62
2018-01-19T09:20:53.915Z,5.43
2018-01-19T09:23:22.100Z,2.30
2018-01-19T09:25:50.274Z,2.12
2018-01-19T09:28:17.696Z,2.55
2018-01-19T09:30:45.115Z,3.72
2018-01-19T09:33:12.621Z,5.30
2018-01-19T09:35:40.039Z,3.92
2018-01-19T09:38:08.215Z,5.50
2018-01-19T09:40:35.636Z,1.85
2018-01-19T09:43:03.051Z,4.43
2018-01-19T09:45:30.587Z,3.62
2018-01-19T09:47:58.058Z,3.53
2018-01-19T09:50:25.513Z,2.60
2018-01-19T09:52:53.687Z,2.72
2018-01-19T09:55:21.900Z,6.32
2018-01-19T09:57:49.315Z,3.35
2018-01-19T10:00:16.736Z,4.28
2018-01-19T10:02:44.205Z,2.15
2018-01-19T10:05:11.676Z,0.50
2018-01-19T10:07:39.832Z,2.90
2018-01-19T10:10:08.019Z,7.45
2018-01-19T10:12:36.200Z,2.50
2018-01-19T10:15:04.393Z,3.20
2018-01-19T10:17:32.611Z,3.40
2018-01-19T10:20:00.084Z,2.40
2018-01-19T10:22:27.552Z,3.53
2018-01-19T10:24:54.976Z,4.37
2018-01-19T10:27:22.487Z,2.45
2018-01-19T10:29:49.964Z,1.87
2018-01-19T10:32:17.427Z,2.90
2018-01-19T10:34:44.842Z,2.25
2018-01-19T10:37:12.367Z,3.83
2018-01-19T10:39:39.781Z,3.25
2018-01-19T10:42:07.207Z,3.47
2018-01-19T10:44:34.619Z,2.35
2018-01-19T10:47:02.052Z,6.10
2018-01-19T10:49:29.463Z,3.58
2018-01-19T10:51:56.988Z,1.65
2018-01-19T10:54:24.399Z,3.05
2018-01-19T10:56:52.587Z,2.22
2018-01-19T10:59:20.005Z,1.33
2018-01-19T11:01:47.423Z,1.25
2018-01-19T11:04:14.913Z,2.15
2018-01-19T11:06:43.131Z,3.58
2018-01-19T11:09:10.602Z,4.90
2018-01-19T11:11:38.024Z,2.20
2018-01-19T11:14:06.199Z,3.50
2018-01-19T11:16:33.625Z,1.92
2018-01-19T11:19:01.043Z,3.15
2018-01-19T11:21:28.564Z,2.75
2018-01-19T11:23:55.991Z,2.85
2018-01-19T11:26:23.396Z,1.08
2018-01-19T11:28:50.816Z,3.67
2018-01-19T11:31:18.231Z,2.83
2018-01-19T11:33:45.651Z,3.80
2018-01-19T11:36:13.080Z,1.40
2018-01-19T11:38:40.549Z,4.22
2018-01-19T11:41:07.964Z,3.25
2018-01-19T11:43:35.387Z,2.03
2018-01-19T11:46:02.805Z,1.87
2018-01-19T11:48:30.235Z,2.50
2018-01-19T11:50:57.652Z,2.70
2018-01-19T11:53:25.164Z,1.65
2018-01-19T11:55:52.630Z,4.55
2018-01-19T11:58:19.999Z,1.30
2018-01-19T12:00:47.412Z,2.15
2018-01-19T12:03:14.938Z,3.22
2018-01-19T12:05:42.352Z,1.37
2018-01-19T12:08:09.772Z,0.85
2018-01-19T12:10:37.244Z,4.03
2018-01-19T12:13:05.640Z,3.42
2018-01-19T12:15:33.111Z,4.32
2018-01-19T12:18:00.522Z,2.28
2018-01-19T12:20:28.048Z,1.75
2018-01-19T12:22:55.464Z,1.85
2018-01-19T12:25:22.984Z,0.40
2018-01-19T12:27:50.455Z,6.28
2018-01-19T12:30:17.875Z,3.22
2018-01-19T12:32:45.307Z,3.12
2018-01-19T12:35:12.762Z,1.12
2018-01-19T12:37:40.171Z,2.25
2018-01-19T12:40:07.701Z,2.87
2018-01-19T12:42:35.117Z,4.87
2018-01-19T12:45:02.644Z,2.50
2018-01-19T12:47:30.059Z,3.05
2018-01-19T12:49:57.483Z,4.12
2018-01-19T12:52:24.970Z,7.20
2018-01-19T12:54:52.380Z,4.57
2018-01-19T12:57:19.894Z,4.72
2018-01-19T12:59:47.302Z,5.78
2018-01-19T13:02:14.823Z,5.72
2018-01-19T13:04:42.296Z,0.70
2018-01-19T13:07:09.715Z,8.48
2018-01-19T13:09:37.239Z,3.35
2018-01-19T13:12:04.660Z,3.58
2018-01-19T13:14:32.080Z,3.25
2018-01-19T13:16:59.545Z,3.55
2018-01-19T13:19:26.956Z,3.20
2018-01-19T13:21:55.152Z,6.72
2018-01-19T13:24:22.564Z,5.82
2018-01-19T13:26:50.037Z,1.85
2018-01-19T13:29:17.507Z,5.20
2018-01-19T13:31:44.934Z,6.97
2018-01-19T13:34:12.444Z,3.25
2018-01-19T13:36:39.917Z,3.78
2018-01-19T13:39:07.357Z,4.32
2018-01-19T13:41:35.573Z,3.62
2018-01-19T13:44:02.995Z,7.70
2018-01-19T13:46:30.415Z,2.08
2018-01-19T13:48:57.923Z,6.32
2018-01-19T13:51:25.349Z,4.18
2018-01-19T13:53:52.768Z,5.40
2018-01-19T13:56:20.187Z,1.20
2018-01-19T13:58:47.604Z,6.40
2018-01-19T14:01:15.128Z,2.00
2018-01-19T14:03:42.596Z,1.37
2018-01-19T14:06:10.016Z,3.85
2018-01-19T14:08:37.538Z,4.05
2018-01-19T14:11:05.012Z,3.05
2018-01-19T14:13:32.435Z,3.62
2018-01-19T14:16:00.626Z,1.50
2018-01-19T14:18:28.135Z,4.57
2018-01-19T14:20:55.555Z,6.78
2018-01-19T14:23:23.072Z,4.90
2018-01-19T14:25:50.488Z,2.47
2018-01-19T14:28:18.019Z,4.53
2018-01-19T14:30:45.432Z,3.62
2018-01-19T14:33:14.366Z,2.00
2018-01-19T14:35:42.543Z,2.12
2018-01-19T14:38:10.759Z,4.85
2018-01-19T14:40:38.180Z,3.42
2018-01-19T14:43:05.596Z,1.90
2018-01-19T14:45:33.016Z,5.85
2018-01-19T14:48:00.432Z,2.33
2018-01-19T14:50:28.008Z,4.47
2018-01-19T14:52:55.427Z,21.55
2018-01-19T14:55:22.847Z,23.17
2018-01-19T14:57:50.288Z,37.90
2018-01-19T15:00:18.492Z,60.85
2018-01-19T15:02:45.912Z,32.80
2018-01-19T15:05:13.444Z,22.60
2018-01-19T15:07:40.859Z,27.87
2018-01-19T15:10:08.379Z,23.58
2018-01-19T15:12:35.799Z,32.88
2018-01-19T15:15:03.228Z,19.00
2018-01-19T15:17:30.648Z,14.73
2018-01-19T15:19:58.155Z,17.10
2018-01-19T15:22:25.627Z,7.53
2018-01-19T15:24:53.048Z,5.93
2018-01-19T15:27:20.563Z,5.85
2018-01-19T15:29:47.983Z,7.53
2018-01-19T15:32:15.503Z,3.40
2018-01-19T15:34:42.925Z,7.65
2018-01-19T15:37:10.344Z,4.03
2018-01-19T15:39:37.811Z,8.85
2018-01-19T15:42:05.288Z,3.60
2018-01-19T15:44:32.760Z,4.40
2018-01-19T15:47:00.183Z,4.47
2018-01-19T15:49:28.411Z,3.17
2018-01-19T15:51:55.836Z,6.82
2018-01-19T15:54:23.251Z,4.25
2018-01-19T15:56:50.816Z,5.53
2018-01-19T15:59:18.287Z,3.58
2018-01-19T16:01:45.760Z,6.97
2018-01-19T16:04:13.172Z,4.90
2018-01-19T16:06:40.592Z,2.00
2018-01-19T16:09:08.071Z,4.87
2018-01-19T16:11:35.491Z,5.22
2018-01-19T16:14:02.908Z,4.62
2018-01-19T16:16:30.331Z,2.17
2018-01-19T16:18:57.843Z,8.45
2018-01-19T16:21:26.013Z,3.33
2018-01-19T16:23:54.220Z,4.85
2018-01-19T16:26:21.688Z,5.00
2018-01-19T16:28:49.152Z,4.47
2018-01-19T16:31:16.564Z,3.33
2018-01-19T16:33:43.994Z,7.28
2018-01-19T16:36:11.463Z,5.12
2018-01-19T16:38:38.887Z,6.72
2018-01-19T16:41:06.307Z,1.65
2018-01-19T16:43:33.727Z,2.70
2018-01-19T16:46:01.140Z,4.82
2018-01-19T16:48:28.564Z,6.45
2018-01-19T16:50:56.748Z,5.15
2018-01-19T16:53:24.176Z,4.90
2018-01-19T16:55:51.592Z,3.45
2018-01-19T16:58:19.011Z,5.32
2018-01-19T17:00:46.464Z,2.45
2018-01-19T17:03:13.889Z,2.05
2018-01-19T17:05:41.299Z,2.62
2018-01-19T17:08:08.723Z,9.43
2018-01-19T17:10:36.140Z,2.90
2018-01-19T17:13:03.559Z,7.93
2018-01-19T17:15:31.087Z,7.03
2018-01-19T17:17:58.512Z,2.53
2018-01-19T17:20:25.935Z,3.80
2018-01-19T17:22:53.392Z,5.18
2018-01-19T17:25:20.832Z,5.65
2018-01-19T17:27:48.223Z,6.45
2018-01-19T17:30:15.644Z,6.90
2018-01-19T17:32:43.068Z,3.95
2018-01-19T17:35:10.487Z,7.45
2018-01-19T17:37:38.718Z,5.95
2018-01-19T17:40:06.189Z,8.98
2018-01-19T17:42:34.344Z,7.37
2018-01-19T17:45:02.537Z,8.10
2018-01-19T17:47:30.723Z,5.07
2018-01-19T17:49:58.904Z,5.68
2018-01-19T17:52:27.087Z,9.05
2018-01-19T17:54:55.307Z,7.45
2018-01-19T17:57:22.725Z,5.30
2018-01-19T17:59:50.148Z,13.65
2018-01-19T18:02:17.565Z,6.97
2018-01-19T18:04:44.991Z,10.43
2018-01-19T18:07:12.412Z,10.63
2018-01-19T18:09:39.930Z,6.53
2018-01-19T18:12:07.339Z,12.02
2018-01-19T18:14:34.767Z,7.93
2018-01-19T18:17:02.183Z,6.35
2018-01-19T18:19:29.596Z,6.07
2018-01-19T18:21:57.074Z,6.47
2018-01-19T18:24:24.535Z,9.15
2018-01-19T18:26:51.957Z,7.28
2018-01-19T18:29:19.475Z,9.52
2018-01-19T18:31:46.896Z,3.83
2018-01-19T18:34:14.419Z,5.95
2018-01-19T18:36:41.884Z,8.05
2018-01-19T18:39:09.295Z,6.47
2018-01-19T18:41:36.723Z,7.30
2018-01-19T18:44:04.295Z,5.10
2018-01-19T18:46:31.715Z,10.90
2018-01-19T18:48:59.136Z,5.03
2018-01-19T18:51:26.564Z,7.70
2018-01-19T18:53:54.761Z,6.50
2018-01-19T18:56:22.360Z,6.20
2018-01-19T18:58:49.779Z,10.35
2018-01-19T19:01:17.195Z,4.82
2018-01-19T19:03:44.608Z,6.32
2018-01-19T19:06:12.036Z,10.15
2018-01-19T19:08:39.452Z,5.45
2018-01-19T19:11:06.980Z,5.60
2018-01-19T19:13:34.400Z,8.70
2018-01-19T19:16:01.935Z,6.82
2018-01-19T19:18:30.100Z,8.38
2018-01-19T19:20:57.572Z,12.05
2018-01-19T19:23:25.043Z,7.82
2018-01-19T19:25:52.464Z,11.77
2018-01-19T19:28:20.700Z,13.90
2018-01-19T19:30:48.116Z,15.32
2018-01-19T19:33:15.539Z,20.08
2018-01-19T19:35:43.009Z,15.20
2018-01-19T19:38:10.472Z,15.73
2018-01-19T19:40:37.947Z,13.00
2018-01-19T19:43:05.372Z,12.65
2018-01-19T19:45:32.898Z,12.18
2018-01-19T19:48:00.311Z,15.15
2018-01-19T19:50:27.727Z,12.98
2018-01-19T19:52:55.196Z,10.00
2018-01-19T19:55:23.422Z,13.07
2018-01-19T19:57:50.850Z,15.90
2018-01-19T20:00:18.324Z,11.20
2018-01-19T20:02:45.748Z,12.18
2018-01-19T20:05:13.264Z,13.02
2018-01-19T20:07:40.688Z,10.90
2018-01-19T20:10:08.876Z,10.48
2018-01-19T20:12:36.292Z,9.10
2018-01-19T20:15:03.715Z,7.57
2018-01-19T20:17:31.141Z,11.40
2018-01-19T20:19:58.560Z,8.05
2018-01-19T20:22:26.731Z,8.40
2018-01-19T20:24:54.155Z,7.80
2018-01-19T20:27:21.608Z,7.97
2018-01-19T20:29:49.027Z,7.55
2018-01-19T20:32:16.448Z,11.57
2018-01-19T20:34:43.867Z,8.77
2018-01-19T20:37:11.355Z,9.02
2018-01-19T20:39:39.547Z,8.00
2018-01-19T20:42:07.727Z,11.50
2018-01-19T20:44:35.951Z,9.40
2018-01-19T20:47:03.441Z,10.25
2018-01-19T20:49:30.843Z,7.72
2018-01-19T20:51:59.767Z,7.25
2018-01-19T20:54:28.119Z,12.40
2018-01-19T20:56:55.659Z,6.28
2018-01-19T20:59:23.072Z,9.95
2018-01-19T21:01:50.491Z,8.10
2018-01-19T21:04:17.913Z,6.20
2018-01-19T21:06:45.428Z,9.20
2018-01-19T21:09:12.904Z,7.20
2018-01-19T21:11:40.328Z,9.23
2018-01-19T21:14:07.748Z,7.60
2018-01-19T21:16:35.167Z,9.25
2018-01-19T21:19:02.584Z,8.07
2018-01-19T21:21:30.008Z,10.65
2018-01-19T21:23:57.515Z,12.20
2018-01-19T21:26:24.987Z,12.82
2018-01-19T21:28:52.412Z,13.95
2018-01-19T21:31:19.823Z,14.73
2018-01-19T21:33:47.244Z,9.68
2018-01-19T21:36:14.767Z,8.38
2018-01-19T21:38:42.187Z,14.20
2018-01-19T21:41:09.701Z,13.70
2018-01-19T21:43:37.128Z,10.00
2018-01-19T21:46:04.542Z,11.82
2018-01-19T21:48:31.967Z,14.82
2018-01-19T21:50:59.392Z,14.75
2018-01-19T21:53:26.955Z,16.23
2018-01-19T21:55:54.379Z,12.82
2018-01-19T21:58:21.808Z,14.48
2018-01-19T22:00:49.223Z,10.68
2018-01-19T22:03:17.440Z,14.18
2018-01-19T22:05:44.911Z,15.93
2018-01-19T22:08:12.332Z,12.57
2018-01-19T22:10:39.755Z,11.98
2018-01-19T22:13:07.219Z,13.52
2018-01-19T22:15:34.643Z,8.68
2018-01-19T22:18:02.159Z,10.20
2018-01-19T22:20:29.627Z,8.10
2018-01-19T22:22:57.043Z,12.05
2018-01-19T22:25:24.520Z,11.45
2018-01-19T22:27:51.931Z,8.88
2018-01-19T22:30:19.403Z,13.95
2018-01-19T22:32:46.873Z,11.95
2018-01-19T22:35:14.295Z,10.55
2018-01-19T22:37:41.707Z,9.25
2018-01-19T22:40:09.133Z,12.13
2018-01-19T22:42:36.552Z,10.93
2018-01-19T22:45:04.019Z,12.60
2018-01-19T22:47:31.445Z,7.78
2018-01-19T22:49:58.859Z,12.60
2018-01-19T22:52:26.285Z,12.35
2018-01-19T22:54:53.708Z,11.52
2018-01-19T22:57:21.131Z,11.68
2018-01-19T22:59:49.347Z,6.72
2018-01-19T23:02:16.767Z,7.32
2018-01-19T23:04:44.288Z,7.75
2018-01-19T23:07:11.763Z,11.30
2018-01-19T23:09:39.252Z,8.45
2018-01-19T23:12:06.667Z,6.00
2018-01-19T23:14:34.847Z,5.57
2018-01-19T23:17:02.386Z,8.43
2018-01-19T23:19:29.803Z,8.95
2018-01-19T23:21:57.999Z,10.52
2018-01-19T23:24:25.411Z,7.03
2018-01-19T23:26:52.835Z,4.75
2018-01-19T23:29:21.032Z,6.68
2018-01-19T23:31:48.511Z,8.27
2018-01-19T23:34:15.935Z,8.68
2018-01-19T23:36:43.443Z,7.62
2018-01-19T23:39:10.864Z,4.05
2018-01-19T23:41:38.384Z,4.32
2018-01-19T23:44:05.803Z,6.72
2018-01-19T23:46:33.324Z,9.43
2018-01-19T23:49:00.898Z,5.95
2018-01-19T23:51:28.291Z,8.23
2018-01-19T23:53:55.829Z,6.20
2018-01-19T23:56:23.244Z,6.95
2018-01-19T23:58:50.774Z,7.65
